KVAD/VAD METAR and TAF weather

Enter ICAO airport designator
Station Type Date Time Source
KVAD METAR 2024/05/28 20:55 UTC NOAA

KVAD 282055Z AUTO 33010KT 10SM SCT060 33/18 A2995 RMK AO2 SLP142 T03280182 57012 $


Station Type Date Time Source
KVAD Decoded METAR 2024/05/28 20:55 UTC NOAA

Moody Air Force Base, GA, United States (KVAD) 30-58N 083-12W 71M
May 28, 2024 - 04:55 PM EDT / 2024.05.28 2055 UTC
Wind: from the NNW (330 degrees) at 12 MPH (10 KT):0
Visibility: 10 mile(s):0
Sky conditions: partly cloudy
Temperature: 91.0 F (32.8 C)
Dew Point: 64.8 F (18.2 C)
Relative Humidity: 41%
Pressure (altimeter): 29.95 in. Hg (1014 hPa)
Pressure tendency: 0.04 inches (1.2 hPa) lower than three hours ago
ob: KVAD 282055Z AUTO 33010KT 10SM SCT060 33/18 A2995 RMK AO2 SLP142 T03280182 57012
cycle: 21

Station Type Date Time Source
KVAD TAF 2024/05/28 16:58 UTC NOAA